Lompoc/Vandenberg AFB, California
Current Conditions -  °F | °C
As of 2:55 PM on Saturday 25 Oct 2014 (Local Time) from KVBG Reporting Station
Broken Clouds Broken Clouds  
Wind Chill: 69°   Ceiling: 1200
Heat Index: 69°   Visibility: 10mi
Dew Point: 60°   Wind: 7mph
Humidity: 73%   Direction: 280°W
Pressure: 30.09"   Gusts: NA
Location:  34.75°N, 120.57°W
Report Text: KVBG 252155Z AUTO 28006KT 10SM BKN012 21/16 A3009 RMK AO2 SLP179 T02060156 TSNO $
Loading
Personal Weather Stations






























Interactive Weather Map
Tropical Storm Tracking
New forecast layout! Learn more

10-Day Weather Forecast

Advertisements
Track Severe Weather on mobile